• Join FlightAware (Why Join?)
  • Login
  • US Flag 
06:45AM EDT


 

Airport Tracker/Info


-or-


 

Live Flight TrackerFlight Track Log ✈ N6401H ✈ 05-May-2013 ✈ KSFB - KHEG

Flight Track Log - Related Links

Times and Time Zones

All times are in EDT time to prevent confusion due to time zone crossing. See the N6401H flight status page for this flight to view local times or setup timezone preferences in your user account.

Time Position Orientation Groundspeed Altitude Reporting Facility
EDT Latitude Longitude Course Direction KTS MPH feet Rate Location/Type
02:40PM 28.7833 -81.2667 286° West 124 143 500  Level Orlando TRACON
02:42PM 28.8000 -81.3333 286° West 130 150 1,900 540 Climbing Orlando TRACON
02:43PM 28.8333 -81.3500 336° Northwest 132 152 2,100 360 Climbing Orlando TRACON
02:44PM 28.8500 -81.4000 291° West 136 157 2,700 600 Climbing Orlando TRACON
02:46PM 28.9050 -81.4031 357° North 135 155 3,900 660 Climbing Jacksonville Center
02:47PM 28.9425 -81.3906 16° North 142 163 4,600 540 Climbing Jacksonville Center
02:48PM 28.9842 -81.3828 North 150 173 5,000 240 Climbing Jacksonville Center
02:49PM 29.0322 -81.3775 North 176 203 5,100  Climbing Jacksonville Center
02:50PM 29.0883 -81.3767 North 175 201 5,000  Descending Jacksonville Center
02:51PM 29.1322 -81.3758 North 169 194 5,100 240 Climbing Jacksonville Center
02:52PM 29.1806 -81.3894 346° North 163 188 5,600 420 Climbing Jacksonville Center
02:53PM 29.2225 -81.4056 341° North 165 190 6,100 480 Climbing Jacksonville Center
02:54PM 29.2686 -81.4214 343° North 163 188 6,600 360 Climbing Jacksonville Center
02:55PM 29.3125 -81.4303 350° North 161 185 6,900 60 Climbing Jacksonville Center
02:56PM 29.3458 -81.4322 357° North 169 194 6,800  Descending Jacksonville Center
02:56PM 29.3750 -81.4342 357° North 171 197 6,900 60 Climbing Jacksonville Center
02:57PM 29.4233 -81.4431 351° North 162 186 6,900  Level Jacksonville Center
02:58PM 29.4631 -81.4614 338° Northwest 158 182 6,900  Level Jacksonville Center
02:59PM 29.5092 -81.4750 346° North 161 185 7,000  Climbing Jacksonville Center
03:00PM 29.5531 -81.4864 347° North 161 185 7,000  Level Jacksonville Center
03:01PM 29.5972 -81.5000 345° North 157 181 7,000  Level Jacksonville Center
03:02PM 29.6392 -81.5161 342° North 157 181 7,000  Level Jacksonville Center
03:03PM 29.6789 -81.5325 340° North 154 177 7,000  Level Jacksonville Center
03:04PM 29.7250 -81.5581 334° Northwest 156 180 7,000  Level Jacksonville Center
03:05PM 29.7669 -81.5717 344° North 155 178 7,000 -120 Level Jacksonville Center
03:06PM 29.8131 -81.5831 348° North 161 185 6,800 -120 Descending Jacksonville Center
03:07PM 29.8528 -81.5969 343° North 151 174 6,800  Level Jacksonville Center
03:08PM 29.8906 -81.6156 337° Northwest 145 167 6,900  Climbing Jacksonville Center
03:09PM 29.9283 -81.6344 337° Northwest 142 163 6,800 -240 Descending Jacksonville Center
03:10PM 29.9661 -81.6531 337° Northwest 148 170 6,500 -660 Descending Jacksonville Center
03:11PM 30.0081 -81.6764 334° Northwest 175 201 5,500 -960 Descending Jacksonville Center
03:12PM 30.0481 -81.7000 333° Northwest 168 193 4,600 -900 Descending Jacksonville Center
03:13PM 30.0878 -81.7236 333° Northwest 160 184 3,800 -660 Descending Jacksonville Center
03:15PM 30.1300 -81.7517 330° Northwest 157 181 3,300 -540 Descending Jacksonville Center